Share

Kanoya Air Base, Japan

Kanoya (RJFY) Elev 223 ft | 31.37 °N, 130.84 °E | Change Station

Current weather conditions updated 32 minutes ago

Light Rain Showers
Light Showers Rain Mist
66 °F
Feels Like 66 °F
N
6
Wind Variable Wind from WSW
Sunrise 5:42 AM
Sunset 6:48 PM
Moon Waning Gibbous

Today is forecast to be Warmer than yesterday. Showers ending by midday.

Pressure 29.83 in
Visibility 1.5 miles
Clouds Scattered Clouds 300 ft
Mostly Cloudy 800 ft
Overcast 1500 ft
Dew Point 64 °F
Humidity 94%
Rainfall 0.00 in
Snow Depth Not available.
UV 2 out of 16
Pollen Not available.
Air Quality Not available.
Flu Activity Not available.
SPECI RJFY 210621Z 25005KT 2400 -SHRA BR SCT003 BKN008 OVC015 19/18 Q1010 RMK 3ST003 5ST008 8CU015 A2984

More Conditions Fewer Conditions

Pressure 29.83 in
Visibility 1.5 miles
Clouds Scattered Clouds 300 ft
Mostly Cloudy 800 ft
Overcast 1500 ft
Dew Point 64 °F
Humidity 94%
Rainfall 0.00 in
Snow Depth Not available.
UV 2 out of 16
Pollen Not available.
Air Quality Not available.
Flu Activity Not available.
SPECI RJFY 210621Z 25005KT 2400 -SHRA BR SCT003 BKN008 OVC015 19/18 Q1010 RMK 3ST003 5ST008 8CU015 A2984

More Conditions Fewer Conditions

10-Day Weather Forecast

Almanac

Astronomy

Apr. 21, 2014 Rise Set
Actual Time 5:42 AM JST 6:48 PM JST
Civil Twilight 5:17 AM JST 7:14 PM JST
Nautical Twilight 4:47 AM JST 7:44 PM JST
Astronomical Twilight 4:16 AM JST 8:15 PM JST
Moon No Moon Rise 10:34 AM JST
Length of Visible Light 13h 56m
Length of Day
13h 06m
Tomorrow will be 1m 46s longer.
Waning Gibbous, 62% of the Moon is Illuminated
Today
Waning Gibbous
Apr 22
Last Quarter
Apr 29
New
May 6
First Quarter
May 14
Full

Yesterday's Extremes

Country Highs Country Lows

Community

  • Snowy Robin
    Snowy Robin
  • Sun Pillar and Geese
    Sun Pillar and Geese
  • Showers on the Way
    Showers on the Way
  • Easter Morning Fog
    Easter Morning Fog
  • Easter Dance
    Easter Dance

WunderPhotos

Upload Photos

1,703,570 photos uploaded!

WunderBlogs® & News

Nearby

Snow Depth

Not available.

Coastal Water Temperatures

Place Temperature
No Stations Reporting

Earthquake Activity

City Distance Mag. Time & Date
No recent earthquake activity has been reported nearby.
Minimum magnitude displayed is 2.5.

Nearby Weather Stations

There are no personal weather stations in this area.

What do you think?

We're not finished. Please let us know what you like, what you don't like, and what you are still missing.